createdAt,value
2023-01-12T00:02:07.742Z,56.60
2023-01-12T00:04:36.133Z,56.70
2023-01-12T00:07:06.738Z,57.30
2023-01-12T00:09:34.758Z,56.80
2023-01-12T00:12:06.055Z,56.80
2023-01-12T00:14:34.603Z,56.80
2023-01-12T00:17:02.808Z,56.80
2023-01-12T00:19:33.824Z,56.80
2023-01-12T00:22:08.676Z,56.90
2023-01-12T00:24:38.523Z,56.90
2023-01-12T00:27:08.651Z,57.00
2023-01-12T00:29:37.340Z,57.00
2023-01-12T00:32:06.788Z,57.00
2023-01-12T00:34:36.223Z,56.90
2023-01-12T00:37:05.232Z,56.90
2023-01-12T00:39:33.480Z,56.90
2023-01-12T00:42:18.995Z,56.80
2023-01-12T00:45:04.407Z,57.00
2023-01-12T00:47:32.521Z,57.00
2023-01-12T00:50:01.903Z,57.00
2023-01-12T00:52:31.383Z,56.90
2023-01-12T00:55:00.465Z,56.90
2023-01-12T00:57:28.808Z,56.90
2023-01-12T00:59:59.271Z,57.00
2023-01-12T01:02:28.353Z,57.10
2023-01-12T01:04:56.800Z,57.20
2023-01-12T01:07:26.588Z,57.40
2023-01-12T01:09:54.747Z,57.60
2023-01-12T01:12:22.806Z,57.70
2023-01-12T01:14:50.923Z,57.90
2023-01-12T01:17:19.036Z,58.10
2023-01-12T01:19:48.282Z,58.20
2023-01-12T01:22:16.449Z,58.30
2023-01-12T01:24:45.974Z,59.00
2023-01-12T01:27:14.209Z,58.60
2023-01-12T01:29:42.296Z,58.60
2023-01-12T01:32:10.404Z,58.70
2023-01-12T01:34:38.495Z,58.80
2023-01-12T01:37:06.585Z,58.90
2023-01-12T01:39:34.607Z,59.00
2023-01-12T01:42:04.170Z,59.00
2023-01-12T01:44:51.754Z,59.10
2023-01-12T01:47:29.140Z,59.20
2023-01-12T01:50:00.597Z,59.20
2023-01-12T01:52:33.550Z,59.30
2023-01-12T01:55:07.748Z,59.40
2023-01-12T01:57:43.725Z,59.50
2023-01-12T02:00:14.323Z,59.60
2023-01-12T02:02:44.914Z,59.60
2023-01-12T02:05:14.791Z,59.70
2023-01-12T02:07:43.226Z,59.80
2023-01-12T02:10:12.023Z,59.80
2023-01-12T02:12:59.143Z,59.80
2023-01-12T02:15:47.599Z,59.90
2023-01-12T02:18:22.701Z,59.90
2023-01-12T02:21:00.224Z,60.00
2023-01-12T02:24:08.553Z,60.10
2023-01-12T02:27:15.911Z,60.10
2023-01-12T02:30:29.197Z,60.10
2023-01-12T02:33:12.281Z,60.20
2023-01-12T02:35:46.570Z,60.10
2023-01-12T02:38:27.869Z,60.20
2023-01-12T02:41:04.266Z,60.30
2023-01-12T02:43:33.065Z,60.30
2023-01-12T02:46:11.289Z,60.40
2023-01-12T02:48:45.788Z,60.50
2023-01-12T02:51:19.472Z,60.50
2023-01-12T02:53:51.093Z,60.50
2023-01-12T02:56:22.628Z,60.50
2023-01-12T02:58:55.355Z,60.50
2023-01-12T03:01:26.186Z,60.40
2023-01-12T03:04:01.098Z,60.40
2023-01-12T03:06:41.703Z,60.50
2023-01-12T03:09:10.881Z,60.40
2023-01-12T03:11:41.685Z,60.40
2023-01-12T03:14:12.179Z,60.40
2023-01-12T03:16:41.479Z,60.40
2023-01-12T03:19:15.803Z,60.40
2023-01-12T03:21:51.485Z,60.50
2023-01-12T03:24:24.353Z,60.50
2023-01-12T03:26:56.266Z,60.40
2023-01-12T03:29:28.681Z,60.40
2023-01-12T03:31:59.269Z,60.30
2023-01-12T03:34:29.056Z,60.20
2023-01-12T03:37:00.569Z,60.20
2023-01-12T03:39:38.695Z,60.30
2023-01-12T03:42:14.439Z,60.20
2023-01-12T03:44:50.827Z,60.20
2023-01-12T03:47:23.551Z,60.20
2023-01-12T03:49:56.185Z,60.10
2023-01-12T03:52:26.436Z,60.10
2023-01-12T03:54:57.844Z,60.20
2023-01-12T03:57:27.125Z,60.10
2023-01-12T03:59:56.212Z,60.20
2023-01-12T04:02:24.364Z,60.20
2023-01-12T04:04:53.791Z,60.20
2023-01-12T04:07:23.131Z,60.30
2023-01-12T04:09:51.147Z,60.30
2023-01-12T04:12:18.212Z,60.30
2023-01-12T04:14:48.576Z,60.30
2023-01-12T04:17:17.419Z,60.40
2023-01-12T04:19:45.489Z,60.40
2023-01-12T04:22:34.324Z,60.50
2023-01-12T04:25:02.456Z,60.50
2023-01-12T04:27:30.582Z,60.50
2023-01-12T04:29:58.596Z,60.50
2023-01-12T04:32:26.689Z,60.50
2023-01-12T04:34:54.728Z,60.60
2023-01-12T04:37:24.254Z,60.50
2023-01-12T04:39:52.297Z,60.60
2023-01-12T04:42:37.722Z,60.60
2023-01-12T04:45:06.677Z,60.70
2023-01-12T04:47:35.278Z,60.60
2023-01-12T04:50:03.359Z,60.60
2023-01-12T04:52:32.794Z,60.70
2023-01-12T04:55:00.819Z,60.60
2023-01-12T04:57:29.233Z,60.60
2023-01-12T04:59:57.300Z,60.70
2023-01-12T05:02:25.426Z,60.70
2023-01-12T05:04:53.442Z,60.70
2023-01-12T05:07:21.583Z,60.80
2023-01-12T05:10:08.630Z,60.70
2023-01-12T05:12:36.745Z,60.80
2023-01-12T05:15:05.196Z,60.80
2023-01-12T05:17:33.552Z,60.90
2023-01-12T05:20:01.768Z,60.80
2023-01-12T05:22:29.838Z,61.00
2023-01-12T05:24:59.300Z,61.00
2023-01-12T05:27:27.398Z,61.10
2023-01-12T05:29:57.046Z,61.20
2023-01-12T05:32:25.109Z,61.20
2023-01-12T05:34:53.214Z,62.10
2023-01-12T05:37:21.301Z,61.50
2023-01-12T05:39:49.334Z,61.60
2023-01-12T05:42:36.322Z,61.70
2023-01-12T05:45:04.678Z,61.70
2023-01-12T05:47:32.707Z,61.80
2023-01-12T05:50:00.799Z,61.80
2023-01-12T05:52:28.932Z,61.80
2023-01-12T05:54:56.947Z,62.00
2023-01-12T05:57:26.392Z,62.00
2023-01-12T05:59:54.418Z,62.00
2023-01-12T06:02:22.613Z,62.00
2023-01-12T06:04:50.772Z,61.90
2023-01-12T06:07:18.918Z,62.00
2023-01-12T06:09:47.165Z,62.00
2023-01-12T06:12:33.110Z,62.00
2023-01-12T06:15:02.521Z,61.80
2023-01-12T06:17:31.959Z,61.80
2023-01-12T06:19:59.981Z,61.80
2023-01-12T06:22:28.121Z,61.80
2023-01-12T06:24:56.137Z,61.80
2023-01-12T06:27:24.289Z,61.90
2023-01-12T06:29:52.306Z,61.80
2023-01-12T06:32:21.751Z,61.90
2023-01-12T06:34:49.769Z,61.90
2023-01-12T06:37:17.871Z,62.00
2023-01-12T06:39:45.924Z,62.00
2023-01-12T06:42:32.909Z,62.10
2023-01-12T06:45:03.906Z,62.10
2023-01-12T06:47:33.646Z,62.10
2023-01-12T06:50:01.667Z,62.10
2023-01-12T06:52:30.316Z,62.10
2023-01-12T06:54:59.289Z,62.10
2023-01-12T06:57:27.415Z,62.10
2023-01-12T06:59:56.454Z,62.10
2023-01-12T07:02:24.615Z,62.00
2023-01-12T07:04:54.132Z,61.90
2023-01-12T07:07:22.255Z,61.90
2023-01-12T07:09:50.267Z,61.90
2023-01-12T07:12:18.513Z,61.90
2023-01-12T07:14:46.531Z,62.00
2023-01-12T07:17:14.618Z,61.90
2023-01-12T07:19:43.365Z,61.80
2023-01-12T07:22:12.788Z,61.80
2023-01-12T07:24:40.870Z,61.80
2023-01-12T07:27:08.920Z,61.90
2023-01-12T07:29:36.953Z,61.90
2023-01-12T07:32:05.520Z,61.90
2023-01-12T07:34:33.578Z,62.10
2023-01-12T07:37:01.708Z,62.10
2023-01-12T07:39:31.130Z,62.20
2023-01-12T07:42:16.635Z,62.10
2023-01-12T07:44:44.741Z,62.00
2023-01-12T07:47:12.783Z,62.00
2023-01-12T07:49:40.843Z,62.00
2023-01-12T07:52:08.961Z,62.00
2023-01-12T07:54:38.614Z,62.10
2023-01-12T07:57:10.148Z,62.00
2023-01-12T07:59:38.202Z,62.10
2023-01-12T08:02:06.860Z,62.00
2023-01-12T08:04:35.100Z,62.00
2023-01-12T08:07:03.259Z,62.10
2023-01-12T08:09:31.281Z,62.00
2023-01-12T08:12:00.766Z,61.80
2023-01-12T08:14:33.252Z,61.80
2023-01-12T08:17:03.284Z,61.90
2023-01-12T08:19:38.619Z,61.80
2023-01-12T08:22:11.056Z,61.80
2023-01-12T08:24:47.383Z,61.80
2023-01-12T08:27:18.249Z,61.90
2023-01-12T08:29:48.681Z,61.80
2023-01-12T08:32:18.759Z,61.80
2023-01-12T08:34:49.919Z,61.70
2023-01-12T08:37:22.085Z,61.50
2023-01-12T08:39:51.463Z,61.40
2023-01-12T08:42:23.590Z,61.40
2023-01-12T08:44:52.443Z,61.20
2023-01-12T08:47:22.877Z,61.20
2023-01-12T08:49:50.934Z,61.30
2023-01-12T08:52:18.979Z,61.30
2023-01-12T08:54:47.009Z,61.20
2023-01-12T08:57:16.291Z,61.00
2023-01-12T08:59:45.761Z,60.80
2023-01-12T09:02:14.625Z,60.80
2023-01-12T09:04:43.403Z,60.70
2023-01-12T09:07:12.975Z,60.80
2023-01-12T09:09:41.066Z,60.80
2023-01-12T09:12:09.176Z,60.60
2023-01-12T09:14:40.042Z,60.50
2023-01-12T09:17:09.577Z,60.30
2023-01-12T09:19:37.597Z,60.30
2023-01-12T09:22:05.867Z,60.30
2023-01-12T09:24:33.919Z,60.10
2023-01-12T09:27:02.081Z,60.20
2023-01-12T09:29:30.115Z,60.20
2023-01-12T09:31:58.261Z,60.20
2023-01-12T09:34:27.844Z,60.10
2023-01-12T09:36:56.716Z,60.00
2023-01-12T09:39:28.540Z,60.00
2023-01-12T09:42:15.325Z,60.00
2023-01-12T09:45:02.973Z,59.90
2023-01-12T09:47:36.445Z,59.90
2023-01-12T09:50:11.705Z,59.90
2023-01-12T09:52:44.821Z,59.90
2023-01-12T09:55:18.038Z,59.10
2023-01-12T09:58:15.027Z,59.20
2023-01-12T10:00:43.137Z,59.10
2023-01-12T10:03:16.887Z,59.00
2023-01-12T10:05:50.392Z,58.90
2023-01-12T10:08:24.514Z,58.80
2023-01-12T10:11:04.184Z,58.90
2023-01-12T10:13:56.254Z,58.80
2023-01-12T10:16:32.030Z,58.70
2023-01-12T10:19:04.181Z,58.60
2023-01-12T10:21:33.825Z,58.60
2023-01-12T10:24:01.864Z,58.70
2023-01-12T10:26:38.804Z,58.80
2023-01-12T10:29:06.891Z,59.00
2023-01-12T10:31:35.113Z,59.50
2023-01-12T10:34:06.931Z,59.50
2023-01-12T10:36:37.837Z,59.10
2023-01-12T10:39:26.588Z,58.80
2023-01-12T10:42:36.868Z,58.50
2023-01-12T10:45:16.286Z,58.10
2023-01-12T10:47:46.079Z,58.10
2023-01-12T10:50:26.342Z,57.90
2023-01-12T10:53:19.487Z,57.60
2023-01-12T10:55:47.929Z,57.60
2023-01-12T10:58:21.971Z,57.10
2023-01-12T11:00:52.152Z,56.60
2023-01-12T11:03:33.027Z,56.50
2023-01-12T11:06:22.893Z,56.20
2023-01-12T11:08:52.731Z,56.10
2023-01-12T11:11:30.950Z,56.30
2023-01-12T11:14:01.238Z,55.80
2023-01-12T11:16:33.853Z,55.40
2023-01-12T11:19:17.449Z,55.40
2023-01-12T11:21:50.926Z,55.20
2023-01-12T11:24:32.620Z,55.20
2023-01-12T11:27:04.815Z,55.10
2023-01-12T11:29:40.650Z,55.10
2023-01-12T11:32:15.746Z,54.90
2023-01-12T11:34:56.862Z,54.70
2023-01-12T11:37:24.926Z,54.40
2023-01-12T11:40:01.307Z,54.30
2023-01-12T11:42:49.556Z,54.20
2023-01-12T11:45:24.262Z,54.10
2023-01-12T11:47:55.954Z,54.00
2023-01-12T11:50:28.605Z,54.00
2023-01-12T11:53:08.319Z,54.20
2023-01-12T11:55:52.750Z,54.20
2023-01-12T11:58:27.568Z,54.00
2023-01-12T12:01:08.336Z,53.80
2023-01-12T12:03:51.205Z,53.60
2023-01-12T12:06:44.964Z,53.30
2023-01-12T12:09:35.302Z,53.20
2023-01-12T12:12:12.279Z,53.20
2023-01-12T12:14:54.983Z,53.60
2023-01-12T12:17:28.612Z,53.60
2023-01-12T12:20:08.443Z,53.90
2023-01-12T12:22:53.628Z,54.00
2023-01-12T12:25:34.002Z,53.40
2023-01-12T12:28:19.656Z,52.60
2023-01-12T12:31:05.371Z,52.00
2023-01-12T12:33:44.264Z,51.60
2023-01-12T12:36:19.619Z,52.00
2023-01-12T12:39:19.966Z,51.00
2023-01-12T12:42:14.068Z,50.40
2023-01-12T12:45:11.391Z,50.50
2023-01-12T12:47:53.925Z,50.10
2023-01-12T12:50:24.993Z,49.60
2023-01-12T12:53:24.042Z,56.60
2023-01-12T12:58:41.630Z,47.70
2023-01-12T13:01:42.714Z,47.60
2023-01-12T13:04:14.963Z,47.40
2023-01-12T13:06:49.516Z,47.50
2023-01-12T13:09:41.082Z,47.10
2023-01-12T13:12:33.932Z,46.90
2023-01-12T13:15:32.540Z,47.10
2023-01-12T13:18:02.017Z,47.00
2023-01-12T13:20:55.720Z,46.90
2023-01-12T13:23:52.282Z,46.10
2023-01-12T13:26:52.230Z,46.10
2023-01-12T13:29:43.885Z,46.20
2023-01-12T13:32:41.400Z,46.40
2023-01-12T13:35:44.900Z,46.50
2023-01-12T13:38:20.257Z,46.30
2023-01-12T13:40:55.650Z,46.40
2023-01-12T13:43:27.608Z,46.30
2023-01-12T13:45:59.162Z,46.00
2023-01-12T13:48:28.922Z,45.80
2023-01-12T13:51:00.144Z,46.50
2023-01-12T13:53:31.599Z,46.00
2023-01-12T13:56:02.009Z,46.10
2023-01-12T13:58:38.839Z,46.40
2023-01-12T14:01:08.750Z,46.60
2023-01-12T14:03:56.504Z,46.50
2023-01-12T14:06:33.391Z,46.10
2023-01-12T14:09:11.670Z,45.80
2023-01-12T14:12:07.959Z,45.40
2023-01-12T14:15:33.125Z,45.20
2023-01-12T14:18:06.255Z,45.20
2023-01-12T14:20:43.112Z,45.50
2023-01-12T14:23:23.076Z,45.50
2023-01-12T14:26:14.875Z,45.50
2023-01-12T14:28:44.951Z,45.80
2023-01-12T14:31:20.518Z,46.10
2023-01-12T14:33:54.648Z,46.40
2023-01-12T14:36:25.971Z,46.60
2023-01-12T14:38:54.529Z,46.70
2023-01-12T14:41:43.980Z,46.70
2023-01-12T14:44:38.748Z,46.80
2023-01-12T14:47:07.271Z,46.60
2023-01-12T14:49:36.513Z,46.80
2023-01-12T14:52:26.163Z,46.80
2023-01-12T14:54:54.323Z,47.00
2023-01-12T14:57:29.888Z,47.10
2023-01-12T14:59:58.650Z,47.20
2023-01-12T15:02:36.249Z,47.40
2023-01-12T15:05:07.182Z,47.60
2023-01-12T15:07:38.420Z,47.70
2023-01-12T15:10:30.123Z,47.90
2023-01-12T15:12:59.275Z,48.10
2023-01-12T15:15:48.904Z,48.20
2023-01-12T15:18:34.913Z,48.30
2023-01-12T15:21:21.004Z,48.50
2023-01-12T15:24:07.697Z,48.70
2023-01-12T15:26:37.149Z,49.00
2023-01-12T15:29:05.178Z,49.00
2023-01-12T15:31:36.012Z,49.20
2023-01-12T15:34:05.769Z,49.40
2023-01-12T15:36:33.890Z,49.50
2023-01-12T15:39:01.979Z,49.70
2023-01-12T15:41:50.434Z,49.80
2023-01-12T15:44:21.374Z,50.10
2023-01-12T15:46:49.521Z,50.20
2023-01-12T15:49:18.483Z,50.40
2023-01-12T15:51:50.190Z,50.50
2023-01-12T15:54:19.667Z,50.60
2023-01-12T15:56:48.252Z,50.80
2023-01-12T15:59:16.545Z,50.90
2023-01-12T16:01:49.912Z,51.00
2023-01-12T16:07:08.666Z,51.10
2023-01-12T16:09:37.287Z,51.10
2023-01-12T16:12:06.051Z,51.30
2023-01-12T16:14:34.328Z,51.40
2023-01-12T16:17:04.178Z,51.40
2023-01-12T16:19:32.227Z,51.50
2023-01-12T16:22:00.328Z,51.50
2023-01-12T16:24:30.945Z,51.70
2023-01-12T16:26:59.236Z,51.70
2023-01-12T16:29:27.321Z,51.80
2023-01-12T16:31:55.461Z,51.80
2023-01-12T16:34:25.024Z,51.90
2023-01-12T16:36:53.157Z,52.10
2023-01-12T16:39:21.184Z,52.10
2023-01-12T16:41:50.024Z,52.20
2023-01-12T16:44:18.074Z,52.20
2023-01-12T16:46:48.602Z,52.30
2023-01-12T16:49:16.691Z,52.40
2023-01-12T16:51:46.337Z,52.40
2023-01-12T16:54:14.427Z,52.60
2023-01-12T16:56:42.607Z,52.60
2023-01-12T16:59:10.630Z,52.80
2023-01-12T17:01:38.997Z,53.80
2023-01-12T17:04:07.215Z,53.80
2023-01-12T17:06:35.401Z,54.00
2023-01-12T17:09:06.416Z,54.10
2023-01-12T17:11:35.704Z,54.10
2023-01-12T17:14:22.984Z,54.80
2023-01-12T17:16:51.958Z,54.30
2023-01-12T17:19:21.598Z,54.30
2023-01-12T17:21:50.878Z,54.50
2023-01-12T17:24:21.882Z,54.40
2023-01-12T17:26:52.116Z,54.50
2023-01-12T17:29:21.725Z,54.60
2023-01-12T17:31:50.573Z,54.80
2023-01-12T17:34:19.210Z,54.80
2023-01-12T17:36:47.660Z,54.80
2023-01-12T17:39:15.752Z,55.00
2023-01-12T17:42:02.987Z,55.00
2023-01-12T17:44:31.844Z,55.10
2023-01-12T17:47:00.051Z,55.20
2023-01-12T17:49:28.372Z,55.20
2023-01-12T17:51:56.589Z,55.30
2023-01-12T17:54:25.567Z,55.40
2023-01-12T17:56:55.905Z,56.10
2023-01-12T17:59:24.922Z,55.60
2023-01-12T18:01:53.686Z,55.70
2023-01-12T18:04:21.795Z,55.70
2023-01-12T18:06:50.061Z,55.80
2023-01-12T18:09:18.485Z,55.90
2023-01-12T18:11:50.771Z,55.90
2023-01-12T18:14:21.508Z,56.00
2023-01-12T18:16:49.658Z,56.10
2023-01-12T18:19:17.832Z,56.10
2023-01-12T18:21:45.967Z,56.20
2023-01-12T18:24:14.028Z,56.20
2023-01-12T18:26:42.132Z,56.30
2023-01-12T18:29:10.178Z,56.30
2023-01-12T18:31:42.508Z,56.40
2023-01-12T18:34:12.436Z,56.40
2023-01-12T18:36:43.253Z,56.50
2023-01-12T18:39:16.034Z,56.50
2023-01-12T18:42:02.637Z,56.70
2023-01-12T18:44:32.068Z,56.70
2023-01-12T18:47:19.658Z,56.80
2023-01-12T18:49:48.266Z,56.80
2023-01-12T18:52:35.046Z,56.80
2023-01-12T18:55:03.531Z,56.80
2023-01-12T18:57:33.302Z,56.80
2023-01-12T19:00:17.219Z,56.90
2023-01-12T19:02:47.001Z,57.10
2023-01-12T19:05:22.979Z,57.10
2023-01-12T19:08:04.477Z,57.30
2023-01-12T19:10:33.655Z,57.40
2023-01-12T19:13:19.566Z,57.40
2023-01-12T19:16:05.208Z,57.50
2023-01-12T19:18:36.252Z,57.40
2023-01-12T19:21:26.834Z,57.50
2023-01-12T19:24:12.542Z,57.60
2023-01-12T19:26:58.035Z,57.70
2023-01-12T19:29:26.405Z,57.70
2023-01-12T19:31:54.577Z,57.80
2023-01-12T19:34:25.646Z,57.90
2023-01-12T19:36:53.787Z,58.00
2023-01-12T19:39:33.867Z,58.10
2023-01-12T19:42:19.336Z,58.10
2023-01-12T19:44:47.407Z,58.10
2023-01-12T19:47:15.567Z,58.20
2023-01-12T19:49:45.021Z,58.30
2023-01-12T19:52:13.101Z,58.40
2023-01-12T19:54:41.143Z,58.40
2023-01-12T19:57:09.223Z,58.50
2023-01-12T19:59:37.284Z,58.70
2023-01-12T20:02:05.989Z,58.80
2023-01-12T20:04:34.365Z,58.80
2023-01-12T20:07:03.808Z,58.90
2023-01-12T20:09:31.833Z,58.90
2023-01-12T20:11:59.961Z,58.90
2023-01-12T20:14:28.002Z,58.90
2023-01-12T20:16:56.038Z,58.90
2023-01-12T20:19:24.089Z,59.00
2023-01-12T20:21:52.130Z,59.10
2023-01-12T20:24:21.579Z,59.10
2023-01-12T20:26:49.739Z,59.20
2023-01-12T20:29:17.977Z,59.30
2023-01-12T20:31:46.686Z,59.30
2023-01-12T20:34:14.796Z,59.40
2023-01-12T20:36:45.501Z,59.50
2023-01-12T20:39:15.662Z,59.40
2023-01-12T20:41:45.249Z,59.50
2023-01-12T20:44:16.873Z,59.50
2023-01-12T20:46:45.374Z,59.60
2023-01-12T20:49:13.513Z,59.60
2023-01-12T20:51:41.645Z,59.70
2023-01-12T20:54:11.086Z,59.80
2023-01-12T20:56:39.200Z,59.80
2023-01-12T20:59:08.706Z,59.90
2023-01-12T21:01:37.253Z,60.70
2023-01-12T21:04:05.424Z,59.90
2023-01-12T21:06:33.658Z,60.00
2023-01-12T21:09:01.699Z,60.00
2023-01-12T21:11:29.893Z,60.20
2023-01-12T21:13:57.959Z,60.30
2023-01-12T21:16:27.689Z,60.30
2023-01-12T21:18:56.628Z,60.40
2023-01-12T21:21:24.730Z,60.40
2023-01-12T21:23:52.860Z,60.50
2023-01-12T21:26:21.091Z,60.50
2023-01-12T21:28:49.127Z,60.50
2023-01-12T21:31:17.807Z,60.50
2023-01-12T21:33:47.415Z,60.50
2023-01-12T21:36:17.964Z,60.50
2023-01-12T21:38:49.977Z,60.70
2023-01-12T21:41:18.623Z,60.60
2023-01-12T21:43:49.956Z,60.70
2023-01-12T21:46:18.831Z,60.70
2023-01-12T21:48:48.429Z,60.70
2023-01-12T21:51:18.131Z,60.80
2023-01-12T21:53:46.166Z,60.80
2023-01-12T21:56:14.624Z,60.80
2023-01-12T21:58:42.684Z,60.90
2023-01-12T22:01:12.907Z,60.90
2023-01-12T22:03:41.342Z,61.00
2023-01-12T22:06:12.598Z,61.00
2023-01-12T22:08:42.114Z,61.00
2023-01-12T22:11:12.865Z,61.10
2023-01-12T22:13:41.580Z,61.20
2023-01-12T22:16:12.099Z,61.20
2023-01-12T22:18:41.026Z,61.20
2023-01-12T22:21:11.359Z,61.20
2023-01-12T22:23:39.908Z,61.20
2023-01-12T22:26:10.033Z,61.20
2023-01-12T22:28:40.238Z,61.20
2023-01-12T22:31:09.979Z,61.30
2023-01-12T22:33:38.114Z,61.30
2023-01-12T22:36:08.014Z,61.30
2023-01-12T22:38:37.451Z,61.40
2023-01-12T22:41:06.987Z,61.40
2023-01-12T22:43:40.596Z,61.40
2023-01-12T22:46:15.756Z,61.40
2023-01-12T22:48:44.089Z,61.40
2023-01-12T22:51:12.325Z,61.40
2023-01-12T22:53:41.729Z,61.50
2023-01-12T22:56:12.075Z,61.50
2023-01-12T22:58:40.164Z,61.50
2023-01-12T23:01:09.858Z,61.50
2023-01-12T23:03:38.576Z,61.60
2023-01-12T23:06:08.019Z,61.60
2023-01-12T23:08:36.033Z,61.60
2023-01-12T23:11:07.054Z,61.60
2023-01-12T23:13:35.607Z,61.60
2023-01-12T23:16:06.952Z,61.60
2023-01-12T23:18:36.519Z,61.70
2023-01-12T23:21:11.179Z,61.70
2023-01-12T23:23:39.939Z,61.70
2023-01-12T23:26:11.580Z,61.80
2023-01-12T23:28:43.103Z,61.80
2023-01-12T23:31:13.457Z,61.80
2023-01-12T23:33:43.578Z,61.80
2023-01-12T23:36:14.971Z,61.80
2023-01-12T23:38:43.731Z,61.90
2023-01-12T23:41:19.160Z,61.90
2023-01-12T23:43:47.904Z,62.30
2023-01-12T23:46:17.094Z,61.90
2023-01-12T23:48:45.329Z,61.90
2023-01-12T23:51:13.420Z,61.80
2023-01-12T23:53:41.544Z,61.80
2023-01-12T23:56:12.433Z,61.90
2023-01-12T23:58:43.018Z,61.90
